createdAt,value
2023-05-03T00:00:41.619Z,53.35
2023-05-03T00:03:14.079Z,53.53
2023-05-03T00:05:45.094Z,53.48
2023-05-03T00:08:18.348Z,53.25
2023-05-03T00:10:51.914Z,53.49
2023-05-03T00:13:22.056Z,53.41
2023-05-03T00:15:50.828Z,53.59
2023-05-03T00:18:22.428Z,53.60
2023-05-03T00:20:53.969Z,53.80
2023-05-03T00:23:24.330Z,53.57
2023-05-03T00:25:54.532Z,53.60
2023-05-03T00:28:26.735Z,53.67
2023-05-03T00:30:58.404Z,53.78
2023-05-03T00:33:29.984Z,53.66
2023-05-03T00:35:59.861Z,53.76
2023-05-03T00:38:31.879Z,53.62
2023-05-03T00:41:02.174Z,53.71
2023-05-03T00:43:32.633Z,53.69
2023-05-03T00:46:16.133Z,53.67
2023-05-03T00:48:49.699Z,53.54
2023-05-03T00:51:20.383Z,53.55
2023-05-03T00:53:51.847Z,53.53
2023-05-03T00:56:25.662Z,53.41
2023-05-03T00:58:55.976Z,53.45
2023-05-03T01:01:25.619Z,53.37
2023-05-03T01:03:55.465Z,53.22
2023-05-03T01:06:28.123Z,53.23
2023-05-03T01:09:01.299Z,53.33
2023-05-03T01:11:38.698Z,53.27
2023-05-03T01:14:16.268Z,53.48
2023-05-03T01:16:50.399Z,53.51
2023-05-03T01:19:32.905Z,53.56
2023-05-03T01:22:16.584Z,53.72
2023-05-03T01:24:48.612Z,53.78
2023-05-03T01:27:17.679Z,53.85
2023-05-03T01:29:49.331Z,53.88
2023-05-03T01:32:24.195Z,53.89
2023-05-03T01:35:02.102Z,53.77
2023-05-03T01:37:32.905Z,53.94
2023-05-03T01:40:07.692Z,53.84
2023-05-03T01:42:41.649Z,53.97
2023-05-03T01:45:12.837Z,54.08
2023-05-03T01:47:47.546Z,54.00
2023-05-03T01:50:19.355Z,54.17
2023-05-03T01:52:52.897Z,54.19
2023-05-03T01:55:22.100Z,54.16
2023-05-03T01:57:50.986Z,54.34
2023-05-03T02:00:22.753Z,54.26
2023-05-03T02:02:52.480Z,54.40
2023-05-03T02:05:22.943Z,54.44
2023-05-03T02:07:53.644Z,54.44
2023-05-03T02:10:24.477Z,54.44
2023-05-03T02:12:53.329Z,54.61
2023-05-03T02:15:23.557Z,54.55
2023-05-03T02:17:54.580Z,54.66
2023-05-03T02:20:23.562Z,54.55
2023-05-03T02:22:52.286Z,54.48
2023-05-03T02:25:22.334Z,54.85
2023-05-03T02:27:52.666Z,54.94
2023-05-03T02:30:21.895Z,54.85
2023-05-03T02:32:50.901Z,54.80
2023-05-03T02:35:22.362Z,54.70
2023-05-03T02:37:52.534Z,54.81
2023-05-03T02:40:24.257Z,55.02
2023-05-03T02:42:56.382Z,55.22
2023-05-03T02:45:28.769Z,55.21
2023-05-03T02:47:59.838Z,55.15
2023-05-03T02:50:30.369Z,55.30
2023-05-03T02:53:00.665Z,55.39
2023-05-03T02:55:31.093Z,55.75
2023-05-03T02:58:02.020Z,55.75
2023-05-03T03:00:33.401Z,55.83
2023-05-03T03:03:02.152Z,55.65
2023-05-03T03:05:33.224Z,55.78
2023-05-03T03:08:02.593Z,55.68
2023-05-03T03:10:33.777Z,55.96
2023-05-03T03:13:05.349Z,55.68
2023-05-03T03:15:38.652Z,55.66
2023-05-03T03:18:22.635Z,55.41
2023-05-03T03:20:53.586Z,55.71
2023-05-03T03:23:23.799Z,55.65
2023-05-03T03:25:55.535Z,55.66
2023-05-03T03:28:27.391Z,56.01
2023-05-03T03:30:58.799Z,55.92
2023-05-03T03:33:28.636Z,56.09
2023-05-03T03:35:59.237Z,56.21
2023-05-03T03:38:34.017Z,56.19
2023-05-03T03:41:05.527Z,56.22
2023-05-03T03:43:36.432Z,56.52
2023-05-03T03:46:06.516Z,56.40
2023-05-03T03:48:37.779Z,56.24
2023-05-03T03:51:10.053Z,56.47
2023-05-03T03:53:41.765Z,56.37
2023-05-03T03:56:10.615Z,56.66
2023-05-03T03:58:42.116Z,56.83
2023-05-03T04:01:13.264Z,56.84
2023-05-03T04:03:46.565Z,56.74
2023-05-03T04:06:15.842Z,56.96
2023-05-03T04:08:47.149Z,57.03
2023-05-03T04:11:16.935Z,56.89
2023-05-03T04:13:52.208Z,56.93
2023-05-03T04:16:22.594Z,57.16
2023-05-03T04:18:52.386Z,57.08
2023-05-03T04:21:23.049Z,57.14
2023-05-03T04:23:52.537Z,57.20
2023-05-03T04:26:31.844Z,57.36
2023-05-03T04:29:16.232Z,57.33
2023-05-03T04:31:46.483Z,57.33
2023-05-03T04:34:19.040Z,57.33
2023-05-03T04:36:51.958Z,57.57
2023-05-03T04:39:22.879Z,57.44
2023-05-03T04:41:56.937Z,57.52
2023-05-03T04:44:26.408Z,57.77
2023-05-03T04:46:57.277Z,57.58
2023-05-03T04:49:29.728Z,57.57
2023-05-03T04:52:01.359Z,57.58
2023-05-03T04:54:32.173Z,57.95
2023-05-03T04:57:02.579Z,57.79
2023-05-03T04:59:33.004Z,57.64
2023-05-03T05:02:03.995Z,58.11
2023-05-03T05:04:33.995Z,58.14
2023-05-03T05:07:02.916Z,58.10
2023-05-03T05:09:33.366Z,58.28
2023-05-03T05:12:05.564Z,58.20
2023-05-03T05:14:38.810Z,58.17
2023-05-03T05:17:09.531Z,58.40
2023-05-03T05:19:40.641Z,58.25
2023-05-03T05:22:10.274Z,58.23
2023-05-03T05:24:54.536Z,58.29
2023-05-03T05:27:27.061Z,57.92
2023-05-03T05:29:59.205Z,57.98
2023-05-03T05:32:28.252Z,57.96
2023-05-03T05:34:59.467Z,58.11
2023-05-03T05:37:30.524Z,57.78
2023-05-03T05:40:07.355Z,57.79
2023-05-03T05:42:40.306Z,57.80
2023-05-03T05:45:14.883Z,57.97
2023-05-03T05:47:48.251Z,57.95
2023-05-03T05:50:19.370Z,57.49
2023-05-03T05:52:54.081Z,57.52
2023-05-03T05:55:25.377Z,57.45
2023-05-03T05:57:56.922Z,57.37
2023-05-03T06:00:28.983Z,57.18
2023-05-03T06:03:00.231Z,57.15
2023-05-03T06:05:33.314Z,57.08
2023-05-03T06:08:06.599Z,56.94
2023-05-03T06:10:36.846Z,56.60
2023-05-03T06:13:12.480Z,56.67
2023-05-03T06:15:42.442Z,56.52
2023-05-03T06:18:12.146Z,56.60
2023-05-03T06:20:42.322Z,56.69
2023-05-03T06:23:11.468Z,56.31
2023-05-03T06:25:42.128Z,56.30
2023-05-03T06:28:14.312Z,56.42
2023-05-03T06:31:12.110Z,55.99
2023-05-03T06:33:43.426Z,55.77
2023-05-03T06:36:12.912Z,55.94
2023-05-03T06:38:44.468Z,55.65
2023-05-03T06:41:13.444Z,55.47
2023-05-03T06:43:45.918Z,55.67
2023-05-03T06:46:20.156Z,55.71
2023-05-03T06:48:53.620Z,55.29
2023-05-03T06:51:27.978Z,55.33
2023-05-03T06:54:21.751Z,55.25
2023-05-03T06:56:52.191Z,55.10
2023-05-03T06:59:21.174Z,55.11
2023-05-03T07:01:52.367Z,55.13
2023-05-03T07:04:21.835Z,55.20
2023-05-03T07:06:56.322Z,55.03
2023-05-03T07:11:58.573Z,54.60
2023-05-03T07:14:27.800Z,54.62
2023-05-03T07:16:57.114Z,54.08
2023-05-03T07:19:26.792Z,52.86
2023-05-03T07:21:58.794Z,51.04
2023-05-03T07:24:28.083Z,48.94
2023-05-03T07:26:59.043Z,48.09
2023-05-03T07:29:29.552Z,46.66
2023-05-03T07:32:00.722Z,45.82
2023-05-03T07:34:29.690Z,46.64
2023-05-03T07:37:00.364Z,44.93
2023-05-03T07:39:31.496Z,45.46
2023-05-03T07:42:00.971Z,43.70
2023-05-03T07:44:34.369Z,44.88
2023-05-03T07:47:06.174Z,45.09
2023-05-03T07:49:37.260Z,44.50
2023-05-03T07:52:08.950Z,43.54
2023-05-03T07:54:37.967Z,43.89
2023-05-03T07:57:08.217Z,41.50
2023-05-03T07:59:39.124Z,42.71
2023-05-03T08:02:08.727Z,42.05
2023-05-03T08:04:39.907Z,41.14
2023-05-03T08:07:10.307Z,42.04
2023-05-03T08:09:41.316Z,40.37
2023-05-03T08:12:13.617Z,40.29
2023-05-03T08:14:43.496Z,40.07
2023-05-03T08:17:15.389Z,38.51
2023-05-03T08:19:44.729Z,38.55
2023-05-03T08:22:14.628Z,39.25
2023-05-03T08:24:47.304Z,39.95
2023-05-03T08:27:16.477Z,36.62
2023-05-03T08:29:47.601Z,37.38
2023-05-03T08:32:21.239Z,38.10
2023-05-03T08:34:51.841Z,36.53
2023-05-03T08:37:23.579Z,36.52
2023-05-03T08:40:23.060Z,36.37
2023-05-03T08:43:44.393Z,35.19
2023-05-03T08:46:14.380Z,35.43
2023-05-03T08:48:45.321Z,35.82
2023-05-03T08:51:14.911Z,34.75
2023-05-03T08:53:46.361Z,33.35
2023-05-03T08:56:25.622Z,34.42
2023-05-03T08:58:56.002Z,35.33
2023-05-03T09:01:29.873Z,35.24
2023-05-03T09:04:20.223Z,34.66
2023-05-03T09:06:49.937Z,34.28
2023-05-03T09:09:33.586Z,33.57
2023-05-03T09:15:26.133Z,33.41
2023-05-03T09:18:31.220Z,34.66
2023-05-03T09:21:01.489Z,34.74
2023-05-03T09:23:32.152Z,34.24
2023-05-03T09:26:01.916Z,31.95
2023-05-03T09:28:41.151Z,32.98
2023-05-03T09:31:12.779Z,33.30
2023-05-03T09:33:43.025Z,32.94
2023-05-03T09:36:15.159Z,31.80
2023-05-03T09:38:45.387Z,32.55
2023-05-03T09:41:14.769Z,33.21
2023-05-03T09:43:55.537Z,32.84
2023-05-03T09:46:27.647Z,31.54
2023-05-03T09:48:58.704Z,30.47
2023-05-03T09:51:28.778Z,29.92
2023-05-03T09:53:57.645Z,31.06
2023-05-03T09:56:31.564Z,31.42
2023-05-03T09:59:01.785Z,31.85
2023-05-03T10:01:32.899Z,31.26
2023-05-03T10:04:03.246Z,31.67
2023-05-03T10:06:37.343Z,31.45
2023-05-03T10:09:09.166Z,31.74
2023-05-03T10:11:50.880Z,31.83
2023-05-03T10:14:20.986Z,31.88
2023-05-03T10:16:51.403Z,31.28
2023-05-03T10:19:27.324Z,31.02
2023-05-03T10:22:09.605Z,30.32
2023-05-03T10:25:01.072Z,30.78
2023-05-03T10:27:56.840Z,30.70
2023-05-03T10:30:35.061Z,30.84
2023-05-03T10:33:18.526Z,30.64
2023-05-03T10:35:54.713Z,30.44
2023-05-03T10:38:25.861Z,30.80
2023-05-03T10:41:15.079Z,30.91
2023-05-03T10:43:45.352Z,30.05
2023-05-03T10:46:44.371Z,29.14
2023-05-03T10:49:17.816Z,30.45
2023-05-03T10:51:49.132Z,30.06
2023-05-03T10:58:40.753Z,30.33
2023-05-03T11:01:14.491Z,30.22
2023-05-03T11:03:47.315Z,30.01
2023-05-03T11:06:36.963Z,29.55
2023-05-03T11:09:07.433Z,29.44
2023-05-03T11:11:40.585Z,29.94
2023-05-03T11:14:10.750Z,29.86
2023-05-03T11:16:48.366Z,29.80
2023-05-03T11:19:21.321Z,29.61
2023-05-03T11:21:57.386Z,29.66
2023-05-03T11:24:27.647Z,29.43
2023-05-03T11:27:00.555Z,29.63
2023-05-03T11:29:42.154Z,30.03
2023-05-03T11:32:22.249Z,29.70
2023-05-03T11:34:52.340Z,29.34
2023-05-03T11:37:21.705Z,29.23
2023-05-03T11:39:52.205Z,29.20
2023-05-03T11:42:21.637Z,29.44
2023-05-03T11:44:54.727Z,29.63
2023-05-03T11:47:25.018Z,29.68
2023-05-03T11:49:54.686Z,29.06
2023-05-03T11:52:25.453Z,29.38
2023-05-03T11:54:55.027Z,29.24
2023-05-03T11:57:25.796Z,29.13
2023-05-03T11:59:56.203Z,29.06
2023-05-03T12:02:28.155Z,28.43
2023-05-03T12:04:59.583Z,28.69
2023-05-03T12:07:33.057Z,28.56
2023-05-03T12:10:22.996Z,28.78
2023-05-03T12:13:02.715Z,28.55
2023-05-03T12:15:43.985Z,28.09
2023-05-03T12:18:20.612Z,28.24
2023-05-03T12:21:29.976Z,28.22
2023-05-03T12:23:46.251Z,28.00
2023-05-03T12:26:19.055Z,27.88
2023-05-03T12:28:50.885Z,27.93
2023-05-03T12:31:22.907Z,28.60
2023-05-03T12:36:43.920Z,28.31
2023-05-03T12:39:16.331Z,28.37
2023-05-03T12:44:23.303Z,28.67
2023-05-03T12:46:57.409Z,28.51
2023-05-03T12:49:31.708Z,28.27
2023-05-03T12:52:35.378Z,28.28
2023-05-03T12:55:03.009Z,28.37
2023-05-03T12:57:37.331Z,28.30
2023-05-03T13:00:14.890Z,28.56
2023-05-03T13:05:34.320Z,27.93
2023-05-03T13:08:10.406Z,28.31
2023-05-03T13:10:42.592Z,28.34
2023-05-03T13:13:12.111Z,28.47
2023-05-03T13:15:43.895Z,28.67
2023-05-03T13:18:14.734Z,28.94
2023-05-03T13:20:46.217Z,28.95
2023-05-03T13:23:17.882Z,28.65
2023-05-03T13:25:47.693Z,28.80
2023-05-03T13:28:20.883Z,28.62
2023-05-03T13:30:58.023Z,28.04
2023-05-03T13:33:29.933Z,27.73
2023-05-03T13:36:02.576Z,28.00
2023-05-03T13:38:35.086Z,28.20
2023-05-03T13:41:09.634Z,28.59
2023-05-03T13:43:38.755Z,28.60
2023-05-03T13:46:10.959Z,28.83
2023-05-03T13:48:42.814Z,28.75
2023-05-03T13:51:13.852Z,28.45
2023-05-03T13:53:44.215Z,28.65
2023-05-03T13:56:41.613Z,28.55
2023-05-03T13:59:13.824Z,28.50
2023-05-03T14:01:44.622Z,28.32
2023-05-03T14:04:14.055Z,28.17
2023-05-03T14:06:44.244Z,28.11
2023-05-03T14:09:14.999Z,27.84
2023-05-03T14:11:47.018Z,28.10
2023-05-03T14:14:17.163Z,28.18
2023-05-03T14:16:48.139Z,27.93
2023-05-03T14:19:19.307Z,27.30
2023-05-03T14:21:50.323Z,27.83
2023-05-03T14:24:19.440Z,27.52
2023-05-03T14:26:49.763Z,27.69
2023-05-03T14:29:19.583Z,27.87
2023-05-03T14:31:51.767Z,28.17
2023-05-03T14:34:22.713Z,28.34
2023-05-03T14:36:53.002Z,28.49
2023-05-03T14:39:22.856Z,28.07
2023-05-03T14:41:51.748Z,28.14
2023-05-03T14:44:21.561Z,28.24
2023-05-03T14:46:54.297Z,28.42
2023-05-03T14:49:23.403Z,28.46
2023-05-03T14:51:52.683Z,28.51
2023-05-03T14:54:27.159Z,28.45
2023-05-03T14:56:56.963Z,28.41
2023-05-03T14:59:29.348Z,28.23
2023-05-03T15:01:59.053Z,27.98
2023-05-03T15:04:29.622Z,27.05
2023-05-03T15:07:03.346Z,27.48
2023-05-03T15:09:33.924Z,27.84
2023-05-03T15:12:07.134Z,27.87
2023-05-03T15:14:37.591Z,27.89
2023-05-03T15:17:08.090Z,27.87
2023-05-03T15:19:37.985Z,27.79
2023-05-03T15:22:06.946Z,27.90
2023-05-03T15:24:36.782Z,28.12
2023-05-03T15:27:08.457Z,28.25
2023-05-03T15:29:40.026Z,28.41
2023-05-03T15:32:09.609Z,28.35
2023-05-03T15:34:41.497Z,28.34
2023-05-03T15:37:12.676Z,28.45
2023-05-03T15:39:43.375Z,28.18
2023-05-03T15:42:21.305Z,27.96
2023-05-03T15:44:56.347Z,28.22
2023-05-03T15:47:29.805Z,28.48
2023-05-03T15:50:10.153Z,28.48
2023-05-03T15:52:43.115Z,28.27
2023-05-03T15:55:14.963Z,28.17
2023-05-03T15:57:47.068Z,28.15
2023-05-03T16:00:17.686Z,28.36
2023-05-03T16:02:51.356Z,28.48
2023-05-03T16:05:25.943Z,28.59
2023-05-03T16:07:56.447Z,28.63
2023-05-03T16:10:26.249Z,28.39
2023-05-03T16:12:55.774Z,28.33
2023-05-03T16:15:25.874Z,28.48
2023-05-03T16:17:58.587Z,28.51
2023-05-03T16:20:30.236Z,28.42
2023-05-03T16:23:00.347Z,28.42
2023-05-03T16:25:35.004Z,28.47
2023-05-03T16:28:06.452Z,28.63
2023-05-03T16:30:35.463Z,28.79
2023-05-03T16:33:05.373Z,28.72
2023-05-03T16:35:35.685Z,28.32
2023-05-03T16:38:06.887Z,28.05
2023-05-03T16:41:02.671Z,28.15
2023-05-03T16:43:35.715Z,27.90
2023-05-03T16:46:04.916Z,27.96
2023-05-03T16:48:35.945Z,28.23
2023-05-03T16:51:06.866Z,28.29
2023-05-03T16:53:43.541Z,28.60
2023-05-03T16:56:40.564Z,28.62
2023-05-03T16:59:11.454Z,28.59
2023-05-03T17:01:42.798Z,28.85
2023-05-03T17:04:11.844Z,29.01
2023-05-03T17:06:41.407Z,28.93
2023-05-03T17:09:31.904Z,28.93
2023-05-03T17:12:08.151Z,29.05
2023-05-03T17:14:39.770Z,29.17
2023-05-03T17:17:12.815Z,29.33
2023-05-03T17:19:46.937Z,29.39
2023-05-03T17:22:16.193Z,29.27
2023-05-03T17:24:46.653Z,29.51
2023-05-03T17:27:17.045Z,29.34
2023-05-03T17:29:47.088Z,29.46
2023-05-03T17:32:16.250Z,29.49
2023-05-03T17:34:50.337Z,29.46
2023-05-03T17:37:23.591Z,29.57
2023-05-03T17:39:54.112Z,29.75
2023-05-03T17:42:24.582Z,29.70
2023-05-03T17:44:55.431Z,29.73
2023-05-03T17:47:28.768Z,29.83
2023-05-03T17:50:02.918Z,29.81
2023-05-03T17:52:34.675Z,30.01
2023-05-03T17:55:05.427Z,30.17
2023-05-03T17:57:41.263Z,30.33
2023-05-03T18:00:16.818Z,30.51
2023-05-03T18:02:47.123Z,30.57
2023-05-03T18:05:28.558Z,30.62
2023-05-03T18:08:33.431Z,30.92
2023-05-03T18:11:10.153Z,31.04
2023-05-03T18:13:43.194Z,31.01
2023-05-03T18:16:17.569Z,30.92
2023-05-03T18:18:49.779Z,30.92
2023-05-03T18:21:29.923Z,31.01
2023-05-03T18:24:01.461Z,31.12
2023-05-03T18:26:33.580Z,31.33
2023-05-03T18:29:06.145Z,31.32
2023-05-03T18:31:37.092Z,31.28
2023-05-03T18:34:14.375Z,31.45
2023-05-03T18:36:45.837Z,31.71
2023-05-03T18:39:16.170Z,31.68
2023-05-03T18:41:45.783Z,31.73
2023-05-03T18:44:15.416Z,31.63
2023-05-03T18:46:47.271Z,31.69
2023-05-03T18:49:17.344Z,31.75
2023-05-03T18:51:48.800Z,31.91
2023-05-03T18:54:23.279Z,32.13
2023-05-03T18:56:53.862Z,32.48
2023-05-03T18:59:24.270Z,32.69
2023-05-03T19:02:01.421Z,32.66
2023-05-03T19:04:32.903Z,32.88
2023-05-03T19:07:06.324Z,32.87
2023-05-03T19:09:41.310Z,33.18
2023-05-03T19:12:14.942Z,33.27
2023-05-03T19:14:48.969Z,33.65
2023-05-03T19:17:21.774Z,33.61
2023-05-03T19:19:55.775Z,33.60
2023-05-03T19:22:29.107Z,33.69
2023-05-03T19:25:00.551Z,33.93
2023-05-03T19:28:21.562Z,33.88
2023-05-03T20:12:52.177Z,35.59
2023-05-03T20:15:22.448Z,35.76
2023-05-03T20:17:53.997Z,35.77
2023-05-03T20:20:26.609Z,35.77
2023-05-03T20:22:56.783Z,35.84
2023-05-03T20:25:36.144Z,36.06
2023-05-03T20:28:08.002Z,35.91
2023-05-03T20:30:40.156Z,36.09
2023-05-03T20:33:14.997Z,36.38
2023-05-03T20:35:46.591Z,36.44
2023-05-03T20:38:15.650Z,36.70
2023-05-03T20:40:48.546Z,36.94
2023-05-03T20:43:19.186Z,37.02
2023-05-03T20:45:53.941Z,37.16
2023-05-03T20:48:27.418Z,37.21
2023-05-03T20:51:05.777Z,37.26
2023-05-03T20:53:36.363Z,37.40
2023-05-03T20:56:09.239Z,37.32
2023-05-03T20:58:39.205Z,37.74
2023-05-03T21:01:10.074Z,37.73
2023-05-03T21:03:38.877Z,37.58
2023-05-03T21:06:10.647Z,37.77
2023-05-03T21:08:40.433Z,37.89
2023-05-03T21:11:11.335Z,37.84
2023-05-03T21:13:40.976Z,38.32
2023-05-03T21:16:12.505Z,38.36
2023-05-03T21:18:43.299Z,38.21
2023-05-03T21:21:12.807Z,38.40
2023-05-03T21:23:41.818Z,38.48
2023-05-03T21:26:12.679Z,39.05
2023-05-03T21:28:45.067Z,39.01
2023-05-03T21:34:52.076Z,39.21
2023-05-03T21:37:24.024Z,39.15
2023-05-03T21:40:01.449Z,39.41
2023-05-03T21:42:50.076Z,39.47
2023-05-03T21:45:28.229Z,39.63
2023-05-03T21:47:57.811Z,39.48
2023-05-03T21:50:29.437Z,39.65
2023-05-03T21:52:58.926Z,39.71
2023-05-03T21:55:30.248Z,39.87
2023-05-03T21:57:59.646Z,39.86
2023-05-03T22:00:30.411Z,40.00
2023-05-03T22:03:00.460Z,40.16
2023-05-03T22:05:31.350Z,40.31
2023-05-03T22:08:01.759Z,40.47
2023-05-03T22:10:35.787Z,40.66
2023-05-03T22:13:07.671Z,40.63
2023-05-03T22:15:36.631Z,40.44
2023-05-03T22:18:10.277Z,40.31
2023-05-03T22:20:40.564Z,40.20
2023-05-03T22:23:11.191Z,40.80
2023-05-03T22:25:42.222Z,40.60
2023-05-03T22:28:13.289Z,40.91
2023-05-03T22:30:45.465Z,40.58
2023-05-03T22:33:15.791Z,41.08
2023-05-03T22:35:47.090Z,40.85
2023-05-03T22:38:18.113Z,41.14
2023-05-03T22:40:48.886Z,41.50
2023-05-03T22:43:20.559Z,41.63
2023-05-03T22:45:49.510Z,41.44
2023-05-03T22:48:22.944Z,41.86
2023-05-03T22:50:55.576Z,41.80
2023-05-03T22:53:25.940Z,41.84
2023-05-03T22:55:57.509Z,41.67
2023-05-03T22:58:32.685Z,42.00
2023-05-03T23:01:01.847Z,41.78
2023-05-03T23:03:35.712Z,41.78
2023-05-03T23:06:06.938Z,41.89
2023-05-03T23:08:36.253Z,41.96
2023-05-03T23:11:07.714Z,41.82
2023-05-03T23:13:37.386Z,41.77
2023-05-03T23:16:11.398Z,41.84
2023-05-03T23:18:42.151Z,41.85
2023-05-03T23:21:14.010Z,42.04
2023-05-03T23:23:44.982Z,41.94
2023-05-03T23:26:15.476Z,41.96
2023-05-03T23:28:45.858Z,42.24
2023-05-03T23:31:17.290Z,42.06
2023-05-03T23:33:48.247Z,41.70
2023-05-03T23:36:18.899Z,41.68
2023-05-03T23:38:55.539Z,41.68
2023-05-03T23:41:27.106Z,41.85
2023-05-03T23:44:01.174Z,41.81
2023-05-03T23:46:30.529Z,42.08
2023-05-03T23:49:02.680Z,42.06
2023-05-03T23:51:34.139Z,41.93
2023-05-03T23:54:04.103Z,42.17
2023-05-03T23:56:35.851Z,42.03
2023-05-03T23:59:06.250Z,42.21
